sensor_id;sensor_type;location;lat;lon;timestamp;P1;durP1;ratioP1;P2;durP2;ratioP2
6300;SDS011;3183;51.010;6.898;2022-07-30T00:00:23;6.17;;;4.40;;
6300;SDS011;3183;51.010;6.898;2022-07-30T00:02:50;8.40;;;5.37;;
6300;SDS011;3183;51.010;6.898;2022-07-30T00:05:19;8.83;;;5.07;;
6300;SDS011;3183;51.010;6.898;2022-07-30T00:07:46;16.73;;;5.23;;
6300;SDS011;3183;51.010;6.898;2022-07-30T00:10:13;13.20;;;5.33;;
6300;SDS011;3183;51.010;6.898;2022-07-30T00:12:40;6.90;;;5.20;;
6300;SDS011;3183;51.010;6.898;2022-07-30T00:15:08;9.90;;;5.30;;
6300;SDS011;3183;51.010;6.898;2022-07-30T00:17:35;7.40;;;5.10;;
6300;SDS011;3183;51.010;6.898;2022-07-30T00:20:03;8.30;;;4.90;;
6300;SDS011;3183;51.010;6.898;2022-07-30T00:22:31;8.23;;;5.17;;
6300;SDS011;3183;51.010;6.898;2022-07-30T00:24:58;7.83;;;4.63;;
6300;SDS011;3183;51.010;6.898;2022-07-30T00:27:25;8.33;;;5.40;;
6300;SDS011;3183;51.010;6.898;2022-07-30T00:29:54;14.10;;;6.30;;
6300;SDS011;3183;51.010;6.898;2022-07-30T00:32:21;8.73;;;5.10;;
6300;SDS011;3183;51.010;6.898;2022-07-30T00:34:49;7.60;;;5.33;;
6300;SDS011;3183;51.010;6.898;2022-07-30T00:37:16;9.43;;;5.30;;
6300;SDS011;3183;51.010;6.898;2022-07-30T00:39:47;16.17;;;5.83;;
6300;SDS011;3183;51.010;6.898;2022-07-30T00:42:14;10.17;;;6.10;;
6300;SDS011;3183;51.010;6.898;2022-07-30T00:44:41;16.13;;;6.17;;
6300;SDS011;3183;51.010;6.898;2022-07-30T00:47:09;10.93;;;5.57;;
6300;SDS011;3183;51.010;6.898;2022-07-30T00:49:36;11.83;;;6.07;;
6300;SDS011;3183;51.010;6.898;2022-07-30T00:52:03;12.20;;;6.77;;
6300;SDS011;3183;51.010;6.898;2022-07-30T00:54:30;9.00;;;6.20;;
6300;SDS011;3183;51.010;6.898;2022-07-30T00:56:59;10.77;;;6.70;;
6300;SDS011;3183;51.010;6.898;2022-07-30T00:59:26;8.90;;;6.27;;
6300;SDS011;3183;51.010;6.898;2022-07-30T01:01:53;8.93;;;6.23;;
6300;SDS011;3183;51.010;6.898;2022-07-30T01:04:21;9.90;;;5.97;;
6300;SDS011;3183;51.010;6.898;2022-07-30T01:06:48;13.17;;;6.17;;
6300;SDS011;3183;51.010;6.898;2022-07-30T01:09:15;6.93;;;5.73;;
6300;SDS011;3183;51.010;6.898;2022-07-30T01:11:42;11.03;;;7.10;;
6300;SDS011;3183;51.010;6.898;2022-07-30T01:14:11;10.83;;;5.90;;
6300;SDS011;3183;51.010;6.898;2022-07-30T01:16:39;14.47;;;6.77;;
6300;SDS011;3183;51.010;6.898;2022-07-30T01:19:08;13.23;;;6.57;;
6300;SDS011;3183;51.010;6.898;2022-07-30T01:21:58;11.97;;;7.00;;
6300;SDS011;3183;51.010;6.898;2022-07-30T01:24:27;14.23;;;6.63;;
6300;SDS011;3183;51.010;6.898;2022-07-30T01:26:56;13.13;;;6.97;;
6300;SDS011;3183;51.010;6.898;2022-07-30T01:29:24;8.30;;;6.83;;
6300;SDS011;3183;51.010;6.898;2022-07-30T01:31:53;18.33;;;7.20;;
6300;SDS011;3183;51.010;6.898;2022-07-30T01:34:24;12.43;;;7.07;;
6300;SDS011;3183;51.010;6.898;2022-07-30T01:36:51;12.20;;;7.90;;
6300;SDS011;3183;51.010;6.898;2022-07-30T01:39:19;13.10;;;6.73;;
6300;SDS011;3183;51.010;6.898;2022-07-30T01:41:46;14.37;;;7.20;;
6300;SDS011;3183;51.010;6.898;2022-07-30T01:44:16;17.13;;;7.27;;
6300;SDS011;3183;51.010;6.898;2022-07-30T01:46:44;16.10;;;7.17;;
6300;SDS011;3183;51.010;6.898;2022-07-30T01:49:12;15.70;;;7.50;;
6300;SDS011;3183;51.010;6.898;2022-07-30T01:51:39;19.27;;;8.03;;
6300;SDS011;3183;51.010;6.898;2022-07-30T01:54:08;24.77;;;8.70;;
6300;SDS011;3183;51.010;6.898;2022-07-30T01:56:36;10.93;;;7.33;;
6300;SDS011;3183;51.010;6.898;2022-07-30T01:59:03;12.70;;;7.97;;
6300;SDS011;3183;51.010;6.898;2022-07-30T02:01:32;19.47;;;7.47;;
6300;SDS011;3183;51.010;6.898;2022-07-30T02:04:00;15.30;;;7.60;;
6300;SDS011;3183;51.010;6.898;2022-07-30T02:06:29;23.17;;;8.70;;
6300;SDS011;3183;51.010;6.898;2022-07-30T02:08:58;19.73;;;8.33;;
6300;SDS011;3183;51.010;6.898;2022-07-30T02:11:27;13.70;;;8.40;;
6300;SDS011;3183;51.010;6.898;2022-07-30T02:14:13;15.40;;;8.63;;
6300;SDS011;3183;51.010;6.898;2022-07-30T02:16:44;13.03;;;8.73;;
6300;SDS011;3183;51.010;6.898;2022-07-30T02:19:15;11.50;;;9.03;;
6300;SDS011;3183;51.010;6.898;2022-07-30T02:21:44;12.83;;;8.70;;
6300;SDS011;3183;51.010;6.898;2022-07-30T02:24:13;12.93;;;9.13;;
6300;SDS011;3183;51.010;6.898;2022-07-30T02:26:41;15.80;;;8.70;;
6300;SDS011;3183;51.010;6.898;2022-07-30T02:29:10;13.97;;;9.27;;
6300;SDS011;3183;51.010;6.898;2022-07-30T02:31:37;19.27;;;8.53;;
6300;SDS011;3183;51.010;6.898;2022-07-30T02:34:07;16.07;;;9.13;;
6300;SDS011;3183;51.010;6.898;2022-07-30T02:36:34;15.53;;;8.63;;
6300;SDS011;3183;51.010;6.898;2022-07-30T02:39:03;13.10;;;8.50;;
6300;SDS011;3183;51.010;6.898;2022-07-30T02:41:32;13.50;;;9.23;;
6300;SDS011;3183;51.010;6.898;2022-07-30T02:44:01;15.03;;;8.80;;
6300;SDS011;3183;51.010;6.898;2022-07-30T02:46:29;10.47;;;8.77;;
6300;SDS011;3183;51.010;6.898;2022-07-30T02:48:57;11.90;;;8.77;;
6300;SDS011;3183;51.010;6.898;2022-07-30T02:51:26;13.30;;;8.57;;
6300;SDS011;3183;51.010;6.898;2022-07-30T02:53:53;14.53;;;8.70;;
6300;SDS011;3183;51.010;6.898;2022-07-30T02:56:21;14.10;;;8.50;;
6300;SDS011;3183;51.010;6.898;2022-07-30T02:58:48;11.27;;;8.53;;
6300;SDS011;3183;51.010;6.898;2022-07-30T03:01:17;12.60;;;8.57;;
6300;SDS011;3183;51.010;6.898;2022-07-30T03:03:45;13.83;;;8.60;;
6300;SDS011;3183;51.010;6.898;2022-07-30T03:06:13;18.67;;;8.90;;
6300;SDS011;3183;51.010;6.898;2022-07-30T03:08:42;16.37;;;9.20;;
6300;SDS011;3183;51.010;6.898;2022-07-30T03:11:10;14.33;;;8.20;;
6300;SDS011;3183;51.010;6.898;2022-07-30T03:13:38;16.43;;;8.43;;
6300;SDS011;3183;51.010;6.898;2022-07-30T03:16:06;15.67;;;8.10;;
6300;SDS011;3183;51.010;6.898;2022-07-30T03:18:34;21.93;;;9.87;;
6300;SDS011;3183;51.010;6.898;2022-07-30T03:21:02;18.70;;;10.10;;
6300;SDS011;3183;51.010;6.898;2022-07-30T03:23:30;14.77;;;9.70;;
6300;SDS011;3183;51.010;6.898;2022-07-30T03:26:01;17.73;;;8.53;;
6300;SDS011;3183;51.010;6.898;2022-07-30T03:28:30;17.17;;;9.83;;
6300;SDS011;3183;51.010;6.898;2022-07-30T03:30:57;10.70;;;8.30;;
6300;SDS011;3183;51.010;6.898;2022-07-30T03:33:24;16.30;;;9.13;;
6300;SDS011;3183;51.010;6.898;2022-07-30T03:35:51;11.27;;;9.57;;
6300;SDS011;3183;51.010;6.898;2022-07-30T03:38:19;19.50;;;9.67;;
6300;SDS011;3183;51.010;6.898;2022-07-30T03:40:46;14.73;;;9.43;;
6300;SDS011;3183;51.010;6.898;2022-07-30T03:43:15;18.60;;;9.33;;
6300;SDS011;3183;51.010;6.898;2022-07-30T03:45:43;17.63;;;9.57;;
6300;SDS011;3183;51.010;6.898;2022-07-30T03:48:11;16.47;;;9.97;;
6300;SDS011;3183;51.010;6.898;2022-07-30T03:50:39;18.73;;;8.80;;
6300;SDS011;3183;51.010;6.898;2022-07-30T03:53:07;21.47;;;10.93;;
6300;SDS011;3183;51.010;6.898;2022-07-30T03:55:35;12.07;;;9.73;;
6300;SDS011;3183;51.010;6.898;2022-07-30T03:58:02;16.07;;;10.20;;
6300;SDS011;3183;51.010;6.898;2022-07-30T04:00:31;14.47;;;9.47;;
6300;SDS011;3183;51.010;6.898;2022-07-30T04:02:58;13.30;;;9.27;;
6300;SDS011;3183;51.010;6.898;2022-07-30T04:05:25;13.77;;;10.03;;
6300;SDS011;3183;51.010;6.898;2022-07-30T04:07:52;16.90;;;10.67;;
6300;SDS011;3183;51.010;6.898;2022-07-30T04:10:19;12.60;;;8.83;;
6300;SDS011;3183;51.010;6.898;2022-07-30T04:12:47;16.70;;;10.60;;
6300;SDS011;3183;51.010;6.898;2022-07-30T04:15:14;18.77;;;9.93;;
6300;SDS011;3183;51.010;6.898;2022-07-30T04:17:44;17.50;;;10.83;;
6300;SDS011;3183;51.010;6.898;2022-07-30T04:20:13;24.70;;;11.10;;
6300;SDS011;3183;51.010;6.898;2022-07-30T04:22:42;22.80;;;11.03;;
6300;SDS011;3183;51.010;6.898;2022-07-30T04:25:10;16.97;;;11.40;;
6300;SDS011;3183;51.010;6.898;2022-07-30T04:27:38;13.90;;;10.13;;
6300;SDS011;3183;51.010;6.898;2022-07-30T04:30:06;21.87;;;11.00;;
6300;SDS011;3183;51.010;6.898;2022-07-30T04:32:34;22.07;;;10.90;;
6300;SDS011;3183;51.010;6.898;2022-07-30T04:35:03;16.73;;;10.87;;
6300;SDS011;3183;51.010;6.898;2022-07-30T04:37:30;19.37;;;11.53;;
6300;SDS011;3183;51.010;6.898;2022-07-30T04:39:57;15.53;;;10.40;;
6300;SDS011;3183;51.010;6.898;2022-07-30T04:42:25;17.40;;;10.33;;
6300;SDS011;3183;51.010;6.898;2022-07-30T04:44:53;12.60;;;9.07;;
6300;SDS011;3183;51.010;6.898;2022-07-30T04:47:20;14.13;;;10.30;;
6300;SDS011;3183;51.010;6.898;2022-07-30T04:49:48;14.40;;;8.13;;
6300;SDS011;3183;51.010;6.898;2022-07-30T04:52:16;13.60;;;8.30;;
6300;SDS011;3183;51.010;6.898;2022-07-30T04:54:44;18.93;;;9.87;;
6300;SDS011;3183;51.010;6.898;2022-07-30T04:57:13;15.80;;;9.47;;
6300;SDS011;3183;51.010;6.898;2022-07-30T04:59:41;15.17;;;9.17;;
6300;SDS011;3183;51.010;6.898;2022-07-30T05:02:08;23.60;;;9.20;;
6300;SDS011;3183;51.010;6.898;2022-07-30T05:04:36;18.60;;;9.80;;
6300;SDS011;3183;51.010;6.898;2022-07-30T05:07:04;10.20;;;8.17;;
6300;SDS011;3183;51.010;6.898;2022-07-30T05:09:33;19.73;;;9.67;;
6300;SDS011;3183;51.010;6.898;2022-07-30T05:12:00;10.07;;;8.07;;
6300;SDS011;3183;51.010;6.898;2022-07-30T05:14:27;13.40;;;9.90;;
6300;SDS011;3183;51.010;6.898;2022-07-30T05:16:54;13.57;;;9.27;;
6300;SDS011;3183;51.010;6.898;2022-07-30T05:19:22;14.27;;;9.30;;
6300;SDS011;3183;51.010;6.898;2022-07-30T05:21:49;16.47;;;9.60;;
6300;SDS011;3183;51.010;6.898;2022-07-30T05:24:17;20.47;;;9.70;;
6300;SDS011;3183;51.010;6.898;2022-07-30T05:26:45;17.23;;;9.27;;
6300;SDS011;3183;51.010;6.898;2022-07-30T05:29:12;17.07;;;8.67;;
6300;SDS011;3183;51.010;6.898;2022-07-30T05:31:39;17.13;;;9.50;;
6300;SDS011;3183;51.010;6.898;2022-07-30T05:34:07;16.80;;;7.90;;
6300;SDS011;3183;51.010;6.898;2022-07-30T05:36:34;17.17;;;8.23;;
6300;SDS011;3183;51.010;6.898;2022-07-30T05:39:01;12.60;;;7.70;;
6300;SDS011;3183;51.010;6.898;2022-07-30T05:41:29;12.60;;;7.50;;
6300;SDS011;3183;51.010;6.898;2022-07-30T05:43:58;11.93;;;7.50;;
6300;SDS011;3183;51.010;6.898;2022-07-30T05:46:25;16.27;;;8.17;;
6300;SDS011;3183;51.010;6.898;2022-07-30T05:48:52;16.83;;;8.23;;
6300;SDS011;3183;51.010;6.898;2022-07-30T05:51:20;10.60;;;8.20;;
6300;SDS011;3183;51.010;6.898;2022-07-30T05:53:47;13.70;;;9.73;;
6300;SDS011;3183;51.010;6.898;2022-07-30T05:56:15;25.27;;;10.40;;
6300;SDS011;3183;51.010;6.898;2022-07-30T05:58:42;20.10;;;12.70;;
6300;SDS011;3183;51.010;6.898;2022-07-30T06:01:11;27.90;;;15.50;;
6300;SDS011;3183;51.010;6.898;2022-07-30T06:03:38;19.90;;;11.63;;
6300;SDS011;3183;51.010;6.898;2022-07-30T06:06:05;26.27;;;12.87;;
6300;SDS011;3183;51.010;6.898;2022-07-30T06:08:33;23.13;;;14.30;;
6300;SDS011;3183;51.010;6.898;2022-07-30T06:11:00;27.67;;;13.27;;
6300;SDS011;3183;51.010;6.898;2022-07-30T06:13:27;31.20;;;14.83;;
6300;SDS011;3183;51.010;6.898;2022-07-30T06:15:54;25.20;;;14.07;;
6300;SDS011;3183;51.010;6.898;2022-07-30T06:18:23;33.83;;;16.70;;
6300;SDS011;3183;51.010;6.898;2022-07-30T06:20:50;27.73;;;16.70;;
6300;SDS011;3183;51.010;6.898;2022-07-30T06:23:18;32.57;;;16.43;;
6300;SDS011;3183;51.010;6.898;2022-07-30T06:25:45;42.87;;;16.17;;
6300;SDS011;3183;51.010;6.898;2022-07-30T06:28:13;27.07;;;16.90;;
6300;SDS011;3183;51.010;6.898;2022-07-30T06:30:40;41.53;;;18.30;;
6300;SDS011;3183;51.010;6.898;2022-07-30T06:33:09;28.60;;;16.33;;
6300;SDS011;3183;51.010;6.898;2022-07-30T06:35:38;29.30;;;17.07;;
6300;SDS011;3183;51.010;6.898;2022-07-30T06:38:05;35.17;;;17.57;;
6300;SDS011;3183;51.010;6.898;2022-07-30T06:40:32;34.50;;;18.30;;
6300;SDS011;3183;51.010;6.898;2022-07-30T06:42:59;33.73;;;19.40;;
6300;SDS011;3183;51.010;6.898;2022-07-30T06:45:28;32.70;;;17.13;;
6300;SDS011;3183;51.010;6.898;2022-07-30T06:47:55;42.37;;;17.90;;
6300;SDS011;3183;51.010;6.898;2022-07-30T06:50:23;34.13;;;17.80;;
6300;SDS011;3183;51.010;6.898;2022-07-30T06:52:51;36.60;;;16.50;;
6300;SDS011;3183;51.010;6.898;2022-07-30T06:55:18;28.27;;;15.20;;
6300;SDS011;3183;51.010;6.898;2022-07-30T06:57:46;26.10;;;14.33;;
6300;SDS011;3183;51.010;6.898;2022-07-30T07:00:13;20.60;;;13.40;;
6300;SDS011;3183;51.010;6.898;2022-07-30T07:02:40;26.43;;;14.20;;
6300;SDS011;3183;51.010;6.898;2022-07-30T07:05:08;34.33;;;14.67;;
6300;SDS011;3183;51.010;6.898;2022-07-30T07:07:35;24.53;;;13.97;;
6300;SDS011;3183;51.010;6.898;2022-07-30T07:10:04;26.83;;;13.27;;
6300;SDS011;3183;51.010;6.898;2022-07-30T07:12:31;28.60;;;13.27;;
6300;SDS011;3183;51.010;6.898;2022-07-30T07:14:58;23.73;;;12.90;;
6300;SDS011;3183;51.010;6.898;2022-07-30T07:17:26;29.83;;;14.60;;
6300;SDS011;3183;51.010;6.898;2022-07-30T07:19:53;21.13;;;12.70;;
6300;SDS011;3183;51.010;6.898;2022-07-30T07:22:20;22.87;;;14.23;;
6300;SDS011;3183;51.010;6.898;2022-07-30T07:24:47;24.27;;;15.70;;
6300;SDS011;3183;51.010;6.898;2022-07-30T07:27:16;29.87;;;13.50;;
6300;SDS011;3183;51.010;6.898;2022-07-30T07:29:43;27.23;;;13.43;;
6300;SDS011;3183;51.010;6.898;2022-07-30T07:32:10;20.53;;;13.57;;
6300;SDS011;3183;51.010;6.898;2022-07-30T07:34:37;27.70;;;12.90;;
6300;SDS011;3183;51.010;6.898;2022-07-30T07:37:04;27.80;;;13.40;;
6300;SDS011;3183;51.010;6.898;2022-07-30T07:39:31;20.90;;;10.93;;
6300;SDS011;3183;51.010;6.898;2022-07-30T07:41:58;21.13;;;10.83;;
6300;SDS011;3183;51.010;6.898;2022-07-30T07:44:27;19.10;;;11.70;;
6300;SDS011;3183;51.010;6.898;2022-07-30T07:46:54;17.27;;;11.30;;
6300;SDS011;3183;51.010;6.898;2022-07-30T07:49:21;18.90;;;11.40;;
6300;SDS011;3183;51.010;6.898;2022-07-30T07:51:48;14.97;;;8.70;;
6300;SDS011;3183;51.010;6.898;2022-07-30T07:54:16;16.13;;;9.68;;
6300;SDS011;3183;51.010;6.898;2022-07-30T07:56:43;22.83;;;9.30;;
6300;SDS011;3183;51.010;6.898;2022-07-30T07:59:10;22.20;;;9.80;;
6300;SDS011;3183;51.010;6.898;2022-07-30T08:01:38;20.30;;;9.53;;
6300;SDS011;3183;51.010;6.898;2022-07-30T08:04:06;13.60;;;7.70;;
6300;SDS011;3183;51.010;6.898;2022-07-30T08:06:33;14.97;;;9.30;;
6300;SDS011;3183;51.010;6.898;2022-07-30T08:09:01;18.60;;;8.67;;
6300;SDS011;3183;51.010;6.898;2022-07-30T08:11:28;12.87;;;8.03;;
6300;SDS011;3183;51.010;6.898;2022-07-30T08:13:55;19.80;;;8.60;;
6300;SDS011;3183;51.010;6.898;2022-07-30T08:16:23;12.40;;;8.17;;
6300;SDS011;3183;51.010;6.898;2022-07-30T08:18:51;13.97;;;7.03;;
6300;SDS011;3183;51.010;6.898;2022-07-30T08:21:18;11.10;;;7.07;;
6300;SDS011;3183;51.010;6.898;2022-07-30T08:23:45;11.10;;;6.63;;
6300;SDS011;3183;51.010;6.898;2022-07-30T08:26:13;14.50;;;8.20;;
6300;SDS011;3183;51.010;6.898;2022-07-30T08:28:40;12.23;;;6.77;;
6300;SDS011;3183;51.010;6.898;2022-07-30T08:31:09;16.50;;;7.17;;
6300;SDS011;3183;51.010;6.898;2022-07-30T08:33:39;15.90;;;7.43;;
6300;SDS011;3183;51.010;6.898;2022-07-30T08:36:08;17.93;;;7.70;;
6300;SDS011;3183;51.010;6.898;2022-07-30T08:38:35;16.90;;;7.53;;
6300;SDS011;3183;51.010;6.898;2022-07-30T08:41:03;17.77;;;8.30;;
6300;SDS011;3183;51.010;6.898;2022-07-30T08:43:30;19.10;;;8.10;;
6300;SDS011;3183;51.010;6.898;2022-07-30T08:45:59;13.83;;;9.13;;
6300;SDS011;3183;51.010;6.898;2022-07-30T08:48:27;20.53;;;10.10;;
6300;SDS011;3183;51.010;6.898;2022-07-30T08:50:55;26.40;;;10.40;;
6300;SDS011;3183;51.010;6.898;2022-07-30T08:53:24;17.30;;;10.27;;
6300;SDS011;3183;51.010;6.898;2022-07-30T08:55:52;20.57;;;9.50;;
6300;SDS011;3183;51.010;6.898;2022-07-30T08:58:23;16.53;;;10.77;;
6300;SDS011;3183;51.010;6.898;2022-07-30T09:00:53;58.77;;;12.57;;
6300;SDS011;3183;51.010;6.898;2022-07-30T09:03:20;22.10;;;9.23;;
6300;SDS011;3183;51.010;6.898;2022-07-30T09:05:48;16.87;;;8.70;;
6300;SDS011;3183;51.010;6.898;2022-07-30T09:08:15;33.87;;;10.60;;
6300;SDS011;3183;51.010;6.898;2022-07-30T09:10:43;22.47;;;8.80;;
6300;SDS011;3183;51.010;6.898;2022-07-30T09:13:23;32.57;;;10.10;;
6300;SDS011;3183;51.010;6.898;2022-07-30T09:15:51;18.60;;;8.33;;
6300;SDS011;3183;51.010;6.898;2022-07-30T09:18:28;28.23;;;8.03;;
6300;SDS011;3183;51.010;6.898;2022-07-30T09:20:57;13.27;;;9.00;;
6300;SDS011;3183;51.010;6.898;2022-07-30T09:23:24;14.17;;;6.80;;
6300;SDS011;3183;51.010;6.898;2022-07-30T09:25:53;15.73;;;8.10;;
6300;SDS011;3183;51.010;6.898;2022-07-30T09:28:26;20.73;;;7.60;;
6300;SDS011;3183;51.010;6.898;2022-07-30T09:30:54;15.73;;;7.70;;
6300;SDS011;3183;51.010;6.898;2022-07-30T09:33:30;16.47;;;7.63;;
6300;SDS011;3183;51.010;6.898;2022-07-30T09:35:57;13.17;;;8.60;;
6300;SDS011;3183;51.010;6.898;2022-07-30T09:38:25;16.00;;;7.93;;
6300;SDS011;3183;51.010;6.898;2022-07-30T09:40:54;15.37;;;8.47;;
6300;SDS011;3183;51.010;6.898;2022-07-30T09:43:21;13.60;;;8.03;;
6300;SDS011;3183;51.010;6.898;2022-07-30T09:45:49;17.03;;;7.37;;
6300;SDS011;3183;51.010;6.898;2022-07-30T09:48:19;15.67;;;9.00;;
6300;SDS011;3183;51.010;6.898;2022-07-30T09:50:47;23.23;;;6.63;;
6300;SDS011;3183;51.010;6.898;2022-07-30T09:53:14;18.57;;;7.17;;
6300;SDS011;3183;51.010;6.898;2022-07-30T09:55:41;15.53;;;6.80;;
6300;SDS011;3183;51.010;6.898;2022-07-30T09:58:10;19.93;;;6.73;;
6300;SDS011;3183;51.010;6.898;2022-07-30T10:00:38;22.00;;;7.77;;
6300;SDS011;3183;51.010;6.898;2022-07-30T10:03:16;14.20;;;7.20;;
6300;SDS011;3183;51.010;6.898;2022-07-30T10:05:48;18.60;;;7.67;;
6300;SDS011;3183;51.010;6.898;2022-07-30T10:08:16;12.90;;;7.53;;
6300;SDS011;3183;51.010;6.898;2022-07-30T10:10:43;13.33;;;7.83;;
6300;SDS011;3183;51.010;6.898;2022-07-30T10:13:13;14.20;;;6.30;;
6300;SDS011;3183;51.010;6.898;2022-07-30T10:15:40;12.33;;;5.70;;
6300;SDS011;3183;51.010;6.898;2022-07-30T10:18:08;16.17;;;5.50;;
6300;SDS011;3183;51.010;6.898;2022-07-30T10:20:35;21.47;;;7.33;;
6300;SDS011;3183;51.010;6.898;2022-07-30T10:23:05;12.10;;;7.07;;
6300;SDS011;3183;51.010;6.898;2022-07-30T10:25:32;9.33;;;6.10;;
6300;SDS011;3183;51.010;6.898;2022-07-30T10:27:59;11.43;;;6.43;;
6300;SDS011;3183;51.010;6.898;2022-07-30T10:30:28;18.03;;;7.80;;
6300;SDS011;3183;51.010;6.898;2022-07-30T10:32:56;14.33;;;6.23;;
6300;SDS011;3183;51.010;6.898;2022-07-30T10:35:24;12.97;;;8.27;;
6300;SDS011;3183;51.010;6.898;2022-07-30T10:37:51;9.03;;;6.00;;
6300;SDS011;3183;51.010;6.898;2022-07-30T10:40:20;11.60;;;6.47;;
6300;SDS011;3183;51.010;6.898;2022-07-30T10:45:38;12.63;;;7.10;;
6300;SDS011;3183;51.010;6.898;2022-07-30T10:48:09;13.70;;;8.40;;
6300;SDS011;3183;51.010;6.898;2022-07-30T10:50:47;15.23;;;7.07;;
6300;SDS011;3183;51.010;6.898;2022-07-30T10:56:08;10.60;;;6.00;;
6300;SDS011;3183;51.010;6.898;2022-07-30T11:01:19;10.50;;;6.37;;
6300;SDS011;3183;51.010;6.898;2022-07-30T11:03:56;12.10;;;5.47;;
6300;SDS011;3183;51.010;6.898;2022-07-30T11:06:42;5.97;;;4.13;;
6300;SDS011;3183;51.010;6.898;2022-07-30T11:11:51;10.97;;;5.57;;
6300;SDS011;3183;51.010;6.898;2022-07-30T11:14:19;14.33;;;7.33;;
6300;SDS011;3183;51.010;6.898;2022-07-30T11:16:59;13.70;;;5.70;;
6300;SDS011;3183;51.010;6.898;2022-07-30T11:19:27;8.37;;;6.03;;
6300;SDS011;3183;51.010;6.898;2022-07-30T11:24:43;16.73;;;4.77;;
6300;SDS011;3183;51.010;6.898;2022-07-30T11:27:19;11.43;;;5.63;;
6300;SDS011;3183;51.010;6.898;2022-07-30T11:30:00;7.93;;;6.10;;
6300;SDS011;3183;51.010;6.898;2022-07-30T11:32:29;10.23;;;5.40;;
6300;SDS011;3183;51.010;6.898;2022-07-30T11:37:55;9.93;;;4.80;;
6300;SDS011;3183;51.010;6.898;2022-07-30T11:40:23;12.83;;;4.70;;
6300;SDS011;3183;51.010;6.898;2022-07-30T11:42:51;5.83;;;3.80;;
6300;SDS011;3183;51.010;6.898;2022-07-30T11:45:39;6.30;;;4.67;;
6300;SDS011;3183;51.010;6.898;2022-07-30T11:48:08;7.60;;;5.63;;
6300;SDS011;3183;51.010;6.898;2022-07-30T11:50:35;10.43;;;5.00;;
6300;SDS011;3183;51.010;6.898;2022-07-30T11:53:03;9.93;;;5.70;;
6300;SDS011;3183;51.010;6.898;2022-07-30T11:55:31;11.00;;;4.10;;
6300;SDS011;3183;51.010;6.898;2022-07-30T11:57:59;7.40;;;4.37;;
6300;SDS011;3183;51.010;6.898;2022-07-30T12:00:32;9.53;;;4.30;;
6300;SDS011;3183;51.010;6.898;2022-07-30T12:03:05;10.30;;;3.70;;
6300;SDS011;3183;51.010;6.898;2022-07-30T12:05:33;7.10;;;3.90;;
6300;SDS011;3183;51.010;6.898;2022-07-30T12:08:00;13.77;;;4.20;;
6300;SDS011;3183;51.010;6.898;2022-07-30T12:10:27;7.10;;;4.23;;
6300;SDS011;3183;51.010;6.898;2022-07-30T12:13:05;6.53;;;3.47;;
6300;SDS011;3183;51.010;6.898;2022-07-30T12:15:33;5.63;;;2.80;;
6300;SDS011;3183;51.010;6.898;2022-07-30T12:18:03;2.63;;;2.20;;
6300;SDS011;3183;51.010;6.898;2022-07-30T12:20:32;9.17;;;2.77;;
6300;SDS011;3183;51.010;6.898;2022-07-30T12:23:00;5.33;;;2.53;;
6300;SDS011;3183;51.010;6.898;2022-07-30T12:25:28;6.73;;;2.90;;
6300;SDS011;3183;51.010;6.898;2022-07-30T12:27:55;5.70;;;2.80;;
6300;SDS011;3183;51.010;6.898;2022-07-30T12:30:23;7.03;;;3.03;;
6300;SDS011;3183;51.010;6.898;2022-07-30T12:32:52;5.30;;;3.03;;
6300;SDS011;3183;51.010;6.898;2022-07-30T12:35:20;9.73;;;4.40;;
6300;SDS011;3183;51.010;6.898;2022-07-30T12:40:33;10.00;;;3.00;;
6300;SDS011;3183;51.010;6.898;2022-07-30T12:43:15;4.63;;;3.17;;
6300;SDS011;3183;51.010;6.898;2022-07-30T12:45:43;4.20;;;2.97;;
6300;SDS011;3183;51.010;6.898;2022-07-30T12:48:10;6.30;;;3.00;;
6300;SDS011;3183;51.010;6.898;2022-07-30T12:50:39;5.07;;;2.80;;
6300;SDS011;3183;51.010;6.898;2022-07-30T12:53:06;5.40;;;3.13;;
6300;SDS011;3183;51.010;6.898;2022-07-30T12:55:34;9.50;;;3.20;;
6300;SDS011;3183;51.010;6.898;2022-07-30T12:58:02;10.03;;;3.00;;
6300;SDS011;3183;51.010;6.898;2022-07-30T13:00:30;4.63;;;2.93;;
6300;SDS011;3183;51.010;6.898;2022-07-30T13:03:00;8.20;;;3.43;;
6300;SDS011;3183;51.010;6.898;2022-07-30T13:05:47;8.07;;;3.50;;
6300;SDS011;3183;51.010;6.898;2022-07-30T13:08:14;12.67;;;3.43;;
6300;SDS011;3183;51.010;6.898;2022-07-30T13:10:54;4.20;;;3.07;;
6300;SDS011;3183;51.010;6.898;2022-07-30T13:13:23;6.47;;;2.93;;
6300;SDS011;3183;51.010;6.898;2022-07-30T13:15:57;5.20;;;2.63;;
6300;SDS011;3183;51.010;6.898;2022-07-30T13:18:25;9.30;;;2.50;;
6300;SDS011;3183;51.010;6.898;2022-07-30T13:20:54;4.00;;;2.83;;
6300;SDS011;3183;51.010;6.898;2022-07-30T13:23:21;6.43;;;3.37;;
6300;SDS011;3183;51.010;6.898;2022-07-30T13:25:48;5.07;;;2.87;;
6300;SDS011;3183;51.010;6.898;2022-07-30T13:28:16;3.13;;;2.30;;
6300;SDS011;3183;51.010;6.898;2022-07-30T13:30:43;3.10;;;2.20;;
6300;SDS011;3183;51.010;6.898;2022-07-30T13:33:10;4.43;;;2.57;;
6300;SDS011;3183;51.010;6.898;2022-07-30T13:35:38;3.10;;;2.80;;
6300;SDS011;3183;51.010;6.898;2022-07-30T13:38:08;4.40;;;2.80;;
6300;SDS011;3183;51.010;6.898;2022-07-30T13:40:37;5.00;;;2.53;;
6300;SDS011;3183;51.010;6.898;2022-07-30T13:43:05;3.30;;;2.20;;
6300;SDS011;3183;51.010;6.898;2022-07-30T13:45:32;5.20;;;2.20;;
6300;SDS011;3183;51.010;6.898;2022-07-30T13:48:00;8.80;;;3.00;;
6300;SDS011;3183;51.010;6.898;2022-07-30T13:50:28;4.80;;;2.10;;
6300;SDS011;3183;51.010;6.898;2022-07-30T13:52:55;15.33;;;3.90;;
6300;SDS011;3183;51.010;6.898;2022-07-30T13:55:24;4.97;;;2.97;;
6300;SDS011;3183;51.010;6.898;2022-07-30T13:57:51;8.57;;;2.70;;
6300;SDS011;3183;51.010;6.898;2022-07-30T14:00:18;5.50;;;2.23;;
6300;SDS011;3183;51.010;6.898;2022-07-30T14:02:46;4.30;;;2.03;;
6300;SDS011;3183;51.010;6.898;2022-07-30T14:05:14;9.03;;;2.00;;
6300;SDS011;3183;51.010;6.898;2022-07-30T14:07:41;3.27;;;1.60;;
6300;SDS011;3183;51.010;6.898;2022-07-30T14:10:08;3.13;;;1.47;;
6300;SDS011;3183;51.010;6.898;2022-07-30T14:12:36;2.90;;;1.77;;
6300;SDS011;3183;51.010;6.898;2022-07-30T14:15:04;2.73;;;1.90;;
6300;SDS011;3183;51.010;6.898;2022-07-30T14:17:33;1.77;;;1.63;;
6300;SDS011;3183;51.010;6.898;2022-07-30T14:20:00;2.90;;;1.70;;
6300;SDS011;3183;51.010;6.898;2022-07-30T14:22:27;2.23;;;2.03;;
6300;SDS011;3183;51.010;6.898;2022-07-30T14:24:54;2.80;;;2.10;;
6300;SDS011;3183;51.010;6.898;2022-07-30T14:27:22;4.67;;;2.13;;
6300;SDS011;3183;51.010;6.898;2022-07-30T14:29:50;3.37;;;1.90;;
6300;SDS011;3183;51.010;6.898;2022-07-30T14:32:18;9.73;;;2.17;;
6300;SDS011;3183;51.010;6.898;2022-07-30T14:34:45;2.43;;;1.90;;
6300;SDS011;3183;51.010;6.898;2022-07-30T14:37:12;2.83;;;2.07;;
6300;SDS011;3183;51.010;6.898;2022-07-30T14:39:39;3.60;;;1.60;;
6300;SDS011;3183;51.010;6.898;2022-07-30T14:42:07;9.27;;;1.60;;
6300;SDS011;3183;51.010;6.898;2022-07-30T14:44:34;2.50;;;1.63;;
6300;SDS011;3183;51.010;6.898;2022-07-30T14:47:03;5.60;;;1.60;;
6300;SDS011;3183;51.010;6.898;2022-07-30T14:49:30;5.47;;;1.57;;
6300;SDS011;3183;51.010;6.898;2022-07-30T14:51:57;2.80;;;1.47;;
6300;SDS011;3183;51.010;6.898;2022-07-30T14:54:25;3.50;;;1.70;;
6300;SDS011;3183;51.010;6.898;2022-07-30T14:56:52;1.40;;;1.30;;
6300;SDS011;3183;51.010;6.898;2022-07-30T14:59:20;4.03;;;1.43;;
6300;SDS011;3183;51.010;6.898;2022-07-30T15:01:47;1.70;;;1.40;;
6300;SDS011;3183;51.010;6.898;2022-07-30T15:04:15;2.53;;;1.70;;
6300;SDS011;3183;51.010;6.898;2022-07-30T15:06:42;2.57;;;1.10;;
6300;SDS011;3183;51.010;6.898;2022-07-30T15:09:10;2.17;;;1.20;;
6300;SDS011;3183;51.010;6.898;2022-07-30T15:11:37;4.43;;;1.40;;
6300;SDS011;3183;51.010;6.898;2022-07-30T15:14:04;3.90;;;1.83;;
6300;SDS011;3183;51.010;6.898;2022-07-30T15:16:32;2.80;;;1.43;;
6300;SDS011;3183;51.010;6.898;2022-07-30T15:18:59;2.40;;;1.53;;
6300;SDS011;3183;51.010;6.898;2022-07-30T15:21:27;3.10;;;1.37;;
6300;SDS011;3183;51.010;6.898;2022-07-30T15:23:54;3.10;;;1.60;;
6300;SDS011;3183;51.010;6.898;2022-07-30T15:26:22;1.93;;;1.33;;
6300;SDS011;3183;51.010;6.898;2022-07-30T15:28:49;2.50;;;1.40;;